FAGM

Rand Airport

Johannesburg, South Africa
METAR FAGM 220600Z 21008KT CAVOK 15/03 Q1025
Observed Flight Rules
Apr-22 @ 06:00 UTC (59 minutes ago) Visual Flight Rules
Wind Visibility Clouds
210° at 8 knots 10,000+ meters
  • Clear skies
Temperatures Readings
Current 15°C / 59°F
Dewpoint 3°C / 37°F
Humidity 45%
Altimeter 30.27" Hg
Pressure 1025 hPa
Elevation 1672
METAR FAGM 220600Z 21008KT CAVOK 15/03 Q1025
Observed Flight Rules
Apr-22 @ 06:00 UTC
(59 minutes ago)
VFR
Wind Visibility
210° at 8 knots 10,000+ meters
Clouds
  • Clear skies
Temperature Dewpoint
15°C / 59°F 3°C / 37°F
Humidity Altimeter Pressure
45% 30.27" Hg 1025 hPa